createdAt,value
2023-01-30T00:05:36.824Z,11.73
2023-01-30T00:11:38.697Z,12.20
2023-01-30T00:17:40.568Z,13.57
2023-01-30T00:23:43.104Z,12.23
2023-01-30T00:29:57.586Z,12.80
2023-01-30T00:36:03.786Z,13.90
2023-01-30T00:42:24.661Z,12.50
2023-01-30T00:48:26.955Z,12.23
2023-01-30T00:54:28.901Z,12.90
2023-01-30T01:00:31.297Z,12.60
2023-01-30T01:06:33.253Z,12.73
2023-01-30T01:12:35.139Z,13.80
2023-01-30T01:18:37.123Z,13.27
2023-01-30T01:24:39.149Z,13.60
2023-01-30T01:30:41.025Z,14.20
2023-01-30T01:36:53.255Z,13.57
2023-01-30T01:42:55.998Z,12.90
2023-01-30T01:49:03.040Z,13.57
2023-01-30T01:55:07.553Z,13.93
2023-01-30T02:01:09.735Z,13.50
2023-01-30T02:07:11.746Z,13.73
2023-01-30T02:13:13.668Z,14.20
2023-01-30T02:19:54.373Z,14.00
2023-01-30T02:26:28.664Z,13.53
2023-01-30T02:32:44.829Z,14.07
2023-01-30T02:38:59.809Z,14.87
2023-01-30T02:45:15.752Z,15.00
2023-01-30T02:51:29.940Z,13.60
2023-01-30T02:57:31.819Z,15.73
2023-01-30T03:04:27.518Z,15.23
2023-01-30T03:11:01.199Z,14.40
2023-01-30T03:17:06.479Z,13.10
2023-01-30T03:23:08.774Z,13.70
2023-01-30T03:29:10.719Z,14.27
2023-01-30T03:35:13.033Z,13.10
2023-01-30T03:41:15.307Z,16.57
2023-01-30T03:47:17.224Z,16.87
2023-01-30T03:53:19.157Z,15.80
2023-01-30T03:59:21.090Z,13.40
2023-01-30T04:05:23.755Z,15.90
2023-01-30T04:11:25.689Z,15.77
2023-01-30T04:17:27.561Z,16.07
2023-01-30T04:23:29.478Z,15.70
2023-01-30T04:29:31.365Z,16.63
2023-01-30T04:35:33.235Z,15.50
2023-01-30T04:41:35.167Z,18.13
2023-01-30T04:47:37.073Z,16.90
2023-01-30T04:53:39.070Z,16.17
2023-01-30T04:59:41.032Z,15.80
2023-01-30T05:05:45.891Z,16.40
2023-01-30T05:11:47.761Z,17.07
2023-01-30T05:17:49.621Z,14.50
2023-01-30T05:23:53.295Z,15.53
2023-01-30T05:29:55.172Z,16.27
2023-01-30T05:35:57.117Z,14.50
2023-01-30T05:41:59.107Z,13.37
2023-01-30T05:48:01.696Z,14.00
2023-01-30T05:54:03.860Z,11.80
2023-01-30T06:00:06.874Z,12.13
2023-01-30T06:06:10.179Z,11.70
2023-01-30T06:12:12.115Z,12.03
2023-01-30T06:18:14.002Z,10.57
2023-01-30T06:24:15.999Z,10.97
2023-01-30T06:30:18.264Z,9.80
2023-01-30T06:36:20.178Z,8.50
2023-01-30T06:42:22.064Z,7.23
2023-01-30T06:48:23.948Z,8.40
2023-01-30T06:54:25.855Z,8.30
2023-01-30T07:00:27.740Z,7.37
2023-01-30T07:06:29.640Z,7.03
2023-01-30T07:12:31.585Z,7.17
2023-01-30T07:18:33.458Z,6.83
2023-01-30T07:24:35.379Z,7.40
2023-01-30T07:30:37.362Z,10.63
2023-01-30T07:36:39.337Z,7.53
2023-01-30T07:42:41.636Z,7.20
2023-01-30T07:48:45.393Z,6.10
2023-01-30T07:54:47.308Z,5.97
2023-01-30T08:00:49.221Z,4.60
2023-01-30T08:06:51.409Z,4.00
2023-01-30T08:12:53.311Z,3.20
2023-01-30T08:18:55.294Z,4.20
2023-01-30T08:24:57.201Z,3.73
2023-01-30T08:30:59.203Z,5.20
2023-01-30T08:37:01.341Z,5.67
2023-01-30T08:43:04.126Z,5.23
2023-01-30T08:49:06.286Z,4.97
2023-01-30T08:55:09.540Z,5.07
2023-01-30T09:01:11.880Z,6.33
2023-01-30T09:07:13.809Z,2.00
2023-01-30T09:13:15.749Z,2.93
2023-01-30T09:19:17.633Z,4.87
2023-01-30T09:25:19.545Z,3.20
2023-01-30T09:31:21.537Z,3.07
2023-01-30T09:37:23.530Z,2.30
2023-01-30T09:43:51.228Z,2.97
2023-01-30T09:50:23.698Z,2.20
2023-01-30T09:56:26.197Z,3.13
2023-01-30T10:02:39.364Z,2.77
2023-01-30T10:09:07.221Z,2.20
2023-01-30T10:15:23.069Z,2.20
2023-01-30T10:21:43.418Z,2.40
2023-01-30T10:27:57.175Z,1.90
2023-01-30T10:34:09.435Z,1.80
2023-01-30T10:40:42.749Z,2.13
2023-01-30T10:47:03.405Z,2.20
2023-01-30T10:54:02.201Z,2.60
2023-01-30T11:00:16.849Z,2.83
2023-01-30T11:06:29.339Z,2.37
2023-01-30T11:12:31.466Z,2.10
2023-01-30T11:25:20.386Z,1.77
2023-01-30T11:31:40.454Z,4.40
2023-01-30T11:37:45.027Z,2.23
2023-01-30T11:43:48.325Z,2.67
2023-01-30T11:50:00.262Z,1.70
2023-01-30T11:56:23.068Z,2.70
2023-01-30T12:02:34.327Z,1.73
2023-01-30T12:08:43.037Z,1.73
2023-01-30T12:14:49.386Z,1.57
2023-01-30T12:21:01.054Z,2.00
2023-01-30T12:27:25.478Z,2.37
2023-01-30T12:33:33.289Z,1.30
2023-01-30T12:39:59.743Z,1.60
2023-01-30T12:46:12.856Z,2.47
2023-01-30T12:52:56.306Z,1.87
2023-01-30T12:59:52.806Z,3.07
2023-01-30T13:06:39.831Z,3.07
2023-01-30T13:13:42.339Z,2.07
2023-01-30T13:20:05.371Z,2.13
2023-01-30T13:26:42.440Z,2.20
2023-01-30T13:33:05.461Z,2.10
2023-01-30T13:39:42.581Z,2.30
2023-01-30T13:45:47.199Z,1.83
2023-01-30T13:51:54.229Z,2.50
2023-01-30T13:58:10.459Z,2.50
2023-01-30T14:04:40.184Z,2.43
2023-01-30T14:10:42.146Z,1.47
2023-01-30T14:16:51.385Z,1.80
2023-01-30T14:23:00.502Z,3.10
2023-01-30T14:29:02.396Z,2.03
2023-01-30T14:35:04.259Z,2.30
2023-01-30T14:41:06.860Z,1.97
2023-01-30T14:47:34.572Z,1.10
2023-01-30T14:53:55.325Z,3.00
2023-01-30T15:00:18.401Z,2.10
2023-01-30T15:06:21.155Z,2.37
2023-01-30T15:12:50.752Z,2.60
2023-01-30T15:19:40.725Z,1.53
2023-01-30T15:26:14.280Z,2.50
2023-01-30T15:32:23.076Z,2.20
2023-01-30T15:38:27.021Z,3.80
2023-01-30T15:45:02.887Z,3.17
2023-01-30T15:51:05.170Z,2.50
2023-01-30T15:57:11.818Z,1.63
2023-01-30T16:03:35.242Z,2.30
2023-01-30T16:09:37.133Z,2.60
2023-01-30T16:15:48.451Z,1.30
2023-01-30T16:21:50.411Z,2.20
2023-01-30T16:27:53.682Z,1.63
2023-01-30T16:33:55.591Z,1.53
2023-01-30T16:40:31.869Z,1.90
2023-01-30T16:46:47.366Z,2.80
2023-01-30T16:52:54.835Z,2.77
2023-01-30T16:59:00.459Z,3.47
2023-01-30T17:05:21.828Z,2.33
2023-01-30T17:11:41.554Z,1.70
2023-01-30T17:17:44.581Z,5.03
2023-01-30T17:24:05.274Z,4.00
2023-01-30T17:30:18.739Z,2.60
2023-01-30T17:36:30.101Z,6.00
2023-01-30T17:42:31.989Z,2.10
2023-01-30T17:48:33.866Z,5.10
2023-01-30T17:54:35.799Z,3.30
2023-01-30T18:00:37.701Z,2.30
2023-01-30T18:06:43.122Z,3.83
2023-01-30T18:12:47.916Z,2.20
2023-01-30T18:18:50.310Z,5.37
2023-01-30T18:24:52.213Z,2.57
2023-01-30T18:30:54.149Z,2.50
2023-01-30T18:36:56.069Z,4.10
2023-01-30T18:42:58.133Z,2.23
2023-01-30T18:49:00.247Z,2.00
2023-01-30T18:55:02.251Z,2.13
2023-01-30T19:01:17.899Z,2.60
2023-01-30T19:07:19.846Z,7.67
2023-01-30T19:13:33.949Z,3.40
2023-01-30T19:19:37.081Z,2.50
2023-01-30T19:25:38.981Z,2.40
2023-01-30T19:31:41.692Z,1.97
2023-01-30T19:37:43.702Z,2.80
2023-01-30T19:43:46.161Z,2.90
2023-01-30T19:49:48.288Z,3.23
2023-01-30T19:55:51.625Z,3.30
2023-01-30T20:01:53.621Z,4.47
2023-01-30T20:07:55.594Z,2.83
2023-01-30T20:13:58.787Z,3.00
2023-01-30T20:20:09.696Z,2.37
2023-01-30T20:26:19.661Z,3.80
2023-01-30T20:32:21.680Z,3.30
2023-01-30T20:38:23.569Z,2.67
2023-01-30T20:44:25.863Z,2.70
2023-01-30T20:50:28.277Z,2.00
2023-01-30T20:56:45.888Z,4.10
2023-01-30T21:02:51.620Z,3.33
2023-01-30T21:08:53.565Z,3.83
2023-01-30T21:14:55.451Z,3.63
2023-01-30T21:20:57.477Z,4.37
2023-01-30T21:26:59.405Z,2.93
2023-01-30T21:33:01.298Z,3.57
2023-01-30T21:39:22.660Z,2.00
2023-01-30T21:45:24.678Z,2.90
2023-01-30T21:51:26.624Z,2.73
2023-01-30T21:57:28.560Z,4.70
2023-01-30T22:03:30.572Z,3.80
2023-01-30T22:09:32.466Z,8.90
2023-01-30T22:15:34.432Z,5.03
2023-01-30T22:21:40.130Z,6.40
2023-01-30T22:27:42.203Z,3.17
2023-01-30T22:33:51.164Z,2.93
2023-01-30T22:39:53.036Z,3.80
2023-01-30T22:46:04.000Z,2.50
2023-01-30T22:52:05.910Z,3.70
2023-01-30T22:58:07.777Z,4.30
2023-01-30T23:04:22.418Z,1.73
2023-01-30T23:10:24.373Z,2.10
2023-01-30T23:16:28.112Z,3.10
2023-01-30T23:22:30.077Z,2.43
2023-01-30T23:28:32.385Z,3.10
2023-01-30T23:34:34.376Z,3.30
2023-01-30T23:40:36.523Z,3.17
2023-01-30T23:46:42.060Z,2.83
2023-01-30T23:52:44.602Z,2.80
2023-01-30T23:58:47.124Z,2.97
